sensor_id;sensor_type;location;lat;lon;timestamp;temperature;humidity
22996;DHT22;11664;49.774;8.650;2023-05-20T00:00:17;13.50;99.90
22996;DHT22;11664;49.774;8.650;2023-05-20T00:02:43;13.50;99.90
22996;DHT22;11664;49.774;8.650;2023-05-20T00:05:21;13.40;99.90
22996;DHT22;11664;49.774;8.650;2023-05-20T00:07:46;13.40;99.90
22996;DHT22;11664;49.774;8.650;2023-05-20T00:10:15;13.40;99.90
22996;DHT22;11664;49.774;8.650;2023-05-20T00:12:47;13.40;99.90
22996;DHT22;11664;49.774;8.650;2023-05-20T00:15:12;13.40;99.90
22996;DHT22;11664;49.774;8.650;2023-05-20T00:17:44;13.40;99.90
22996;DHT22;11664;49.774;8.650;2023-05-20T00:20:16;13.40;99.90
22996;DHT22;11664;49.774;8.650;2023-05-20T00:22:41;13.30;99.90
22996;DHT22;11664;49.774;8.650;2023-05-20T00:25:10;13.30;99.90
22996;DHT22;11664;49.774;8.650;2023-05-20T00:27:41;13.30;99.90
22996;DHT22;11664;49.774;8.650;2023-05-20T00:30:07;13.30;99.90
22996;DHT22;11664;49.774;8.650;2023-05-20T00:32:36;13.20;99.90
22996;DHT22;11664;49.774;8.650;2023-05-20T00:35:14;13.20;99.90
22996;DHT22;11664;49.774;8.650;2023-05-20T00:37:39;13.20;99.90
22996;DHT22;11664;49.774;8.650;2023-05-20T00:40:11;13.20;99.90
22996;DHT22;11664;49.774;8.650;2023-05-20T00:42:37;13.20;99.90
22996;DHT22;11664;49.774;8.650;2023-05-20T00:45:03;13.10;99.90
22996;DHT22;11664;49.774;8.650;2023-05-20T00:47:41;13.10;99.90
22996;DHT22;11664;49.774;8.650;2023-05-20T00:50:13;13.00;99.90
22996;DHT22;11664;49.774;8.650;2023-05-20T00:52:44;13.00;99.90
22996;DHT22;11664;49.774;8.650;2023-05-20T00:55:15;13.00;99.90
22996;DHT22;11664;49.774;8.650;2023-05-20T00:57:51;13.00;99.90
22996;DHT22;11664;49.774;8.650;2023-05-20T01:00:17;13.10;99.90
22996;DHT22;11664;49.774;8.650;2023-05-20T01:02:49;13.10;99.90
22996;DHT22;11664;49.774;8.650;2023-05-20T01:05:17;13.10;99.90
22996;DHT22;11664;49.774;8.650;2023-05-20T01:07:49;13.10;99.90
22996;DHT22;11664;49.774;8.650;2023-05-20T01:10:22;13.00;99.90
22996;DHT22;11664;49.774;8.650;2023-05-20T01:12:53;13.00;99.90
22996;DHT22;11664;49.774;8.650;2023-05-20T01:15:24;13.00;99.90
22996;DHT22;11664;49.774;8.650;2023-05-20T01:17:55;12.90;99.90
22996;DHT22;11664;49.774;8.650;2023-05-20T01:20:23;12.90;99.90
22996;DHT22;11664;49.774;8.650;2023-05-20T01:22:53;13.00;99.90
22996;DHT22;11664;49.774;8.650;2023-05-20T01:25:19;13.00;99.90
22996;DHT22;11664;49.774;8.650;2023-05-20T01:27:53;12.90;99.90
22996;DHT22;11664;49.774;8.650;2023-05-20T01:30:19;12.90;99.90
22996;DHT22;11664;49.774;8.650;2023-05-20T01:33:01;12.90;99.90
22996;DHT22;11664;49.774;8.650;2023-05-20T01:35:35;12.90;99.90
22996;DHT22;11664;49.774;8.650;2023-05-20T01:38:04;12.90;99.90
22996;DHT22;11664;49.774;8.650;2023-05-20T01:40:32;12.90;99.90
22996;DHT22;11664;49.774;8.650;2023-05-20T01:43:01;12.90;99.90
22996;DHT22;11664;49.774;8.650;2023-05-20T01:45:33;12.90;99.90
22996;DHT22;11664;49.774;8.650;2023-05-20T01:47:59;12.80;99.90
22996;DHT22;11664;49.774;8.650;2023-05-20T01:50:29;12.80;99.90
22996;DHT22;11664;49.774;8.650;2023-05-20T01:52:54;12.70;99.90
22996;DHT22;11664;49.774;8.650;2023-05-20T01:55:23;12.70;99.90
22996;DHT22;11664;49.774;8.650;2023-05-20T01:57:49;12.70;99.90
22996;DHT22;11664;49.774;8.650;2023-05-20T02:00:21;12.70;99.90
22996;DHT22;11664;49.774;8.650;2023-05-20T02:02:46;12.60;99.90
22996;DHT22;11664;49.774;8.650;2023-05-20T02:05:18;12.60;99.90
22996;DHT22;11664;49.774;8.650;2023-05-20T02:07:44;12.60;99.90
22996;DHT22;11664;49.774;8.650;2023-05-20T02:10:09;12.60;99.90
22996;DHT22;11664;49.774;8.650;2023-05-20T02:12:41;12.60;99.90
22996;DHT22;11664;49.774;8.650;2023-05-20T02:15:13;12.60;99.90
22996;DHT22;11664;49.774;8.650;2023-05-20T02:17:39;12.60;99.90
22996;DHT22;11664;49.774;8.650;2023-05-20T02:20:10;12.60;99.90
22996;DHT22;11664;49.774;8.650;2023-05-20T02:22:39;12.60;99.90
22996;DHT22;11664;49.774;8.650;2023-05-20T02:25:07;12.50;99.90
22996;DHT22;11664;49.774;8.650;2023-05-20T02:27:33;12.50;99.90
22996;DHT22;11664;49.774;8.650;2023-05-20T02:29:59;12.50;99.90
22996;DHT22;11664;49.774;8.650;2023-05-20T02:32:25;12.50;99.90
22996;DHT22;11664;49.774;8.650;2023-05-20T02:34:53;12.50;99.90
22996;DHT22;11664;49.774;8.650;2023-05-20T02:37:28;12.50;99.90
22996;DHT22;11664;49.774;8.650;2023-05-20T02:39:56;12.40;99.90
22996;DHT22;11664;49.774;8.650;2023-05-20T02:42:22;12.40;99.90
22996;DHT22;11664;49.774;8.650;2023-05-20T02:44:47;12.50;99.90
22996;DHT22;11664;49.774;8.650;2023-05-20T02:47:16;12.40;99.90
22996;DHT22;11664;49.774;8.650;2023-05-20T02:49:42;12.40;99.90
22996;DHT22;11664;49.774;8.650;2023-05-20T02:52:07;12.40;99.90
22996;DHT22;11664;49.774;8.650;2023-05-20T02:54:33;12.40;99.90
22996;DHT22;11664;49.774;8.650;2023-05-20T02:57:05;12.40;99.90
22996;DHT22;11664;49.774;8.650;2023-05-20T02:59:33;12.40;99.90
22996;DHT22;11664;49.774;8.650;2023-05-20T03:01:59;12.30;99.90
22996;DHT22;11664;49.774;8.650;2023-05-20T03:04:30;12.30;99.90
22996;DHT22;11664;49.774;8.650;2023-05-20T03:07:04;12.30;99.90
22996;DHT22;11664;49.774;8.650;2023-05-20T03:09:36;12.30;99.90
22996;DHT22;11664;49.774;8.650;2023-05-20T03:12:02;12.30;99.90
22996;DHT22;11664;49.774;8.650;2023-05-20T03:14:27;12.30;99.90
22996;DHT22;11664;49.774;8.650;2023-05-20T03:16:53;12.20;99.90
22996;DHT22;11664;49.774;8.650;2023-05-20T03:19:31;12.20;99.90
22996;DHT22;11664;49.774;8.650;2023-05-20T03:21:56;12.20;99.90
22996;DHT22;11664;49.774;8.650;2023-05-20T03:24:26;12.20;99.90
22996;DHT22;11664;49.774;8.650;2023-05-20T03:26:57;12.20;99.90
22996;DHT22;11664;49.774;8.650;2023-05-20T03:29:29;12.10;99.90
22996;DHT22;11664;49.774;8.650;2023-05-20T03:31:58;12.20;99.90
22996;DHT22;11664;49.774;8.650;2023-05-20T03:34:27;12.20;99.90
22996;DHT22;11664;49.774;8.650;2023-05-20T03:37:00;12.10;99.90
22996;DHT22;11664;49.774;8.650;2023-05-20T03:39:29;12.10;99.90
22996;DHT22;11664;49.774;8.650;2023-05-20T03:42:00;12.10;99.90
22996;DHT22;11664;49.774;8.650;2023-05-20T03:44:25;12.10;99.90
22996;DHT22;11664;49.774;8.650;2023-05-20T03:46:57;12.10;99.90
22996;DHT22;11664;49.774;8.650;2023-05-20T03:49:25;12.00;99.90
22996;DHT22;11664;49.774;8.650;2023-05-20T03:51:51;11.90;99.90
22996;DHT22;11664;49.774;8.650;2023-05-20T03:54:17;11.90;99.90
22996;DHT22;11664;49.774;8.650;2023-05-20T03:56:45;11.90;99.90
22996;DHT22;11664;49.774;8.650;2023-05-20T03:59:19;11.80;99.90
22996;DHT22;11664;49.774;8.650;2023-05-20T04:01:46;11.80;99.90
22996;DHT22;11664;49.774;8.650;2023-05-20T04:04:12;11.80;99.90
22996;DHT22;11664;49.774;8.650;2023-05-20T04:06:40;11.80;99.90
22996;DHT22;11664;49.774;8.650;2023-05-20T04:09:12;11.90;99.90
22996;DHT22;11664;49.774;8.650;2023-05-20T04:11:38;12.00;99.90
22996;DHT22;11664;49.774;8.650;2023-05-20T04:14:09;12.10;99.90
22996;DHT22;11664;49.774;8.650;2023-05-20T04:16:38;12.30;99.90
22996;DHT22;11664;49.774;8.650;2023-05-20T04:19:04;12.40;99.90
22996;DHT22;11664;49.774;8.650;2023-05-20T04:21:35;12.50;99.90
22996;DHT22;11664;49.774;8.650;2023-05-20T04:24:01;12.60;99.90
22996;DHT22;11664;49.774;8.650;2023-05-20T04:26:27;12.70;99.90
22996;DHT22;11664;49.774;8.650;2023-05-20T04:28:53;12.80;99.90
22996;DHT22;11664;49.774;8.650;2023-05-20T04:31:22;12.90;99.90
22996;DHT22;11664;49.774;8.650;2023-05-20T04:33:54;12.90;99.90
22996;DHT22;11664;49.774;8.650;2023-05-20T04:36:26;13.00;99.90
22996;DHT22;11664;49.774;8.650;2023-05-20T04:38:54;13.00;99.90
22996;DHT22;11664;49.774;8.650;2023-05-20T04:41:23;13.10;99.90
22996;DHT22;11664;49.774;8.650;2023-05-20T04:43:48;13.10;99.90
22996;DHT22;11664;49.774;8.650;2023-05-20T04:46:20;13.20;99.90
22996;DHT22;11664;49.774;8.650;2023-05-20T04:48:46;13.20;99.90
22996;DHT22;11664;49.774;8.650;2023-05-20T04:51:15;13.20;99.90
22996;DHT22;11664;49.774;8.650;2023-05-20T04:53:43;13.30;99.90
22996;DHT22;11664;49.774;8.650;2023-05-20T04:56:10;13.40;99.90
22996;DHT22;11664;49.774;8.650;2023-05-20T04:58:35;13.50;99.90
22996;DHT22;11664;49.774;8.650;2023-05-20T05:01:01;13.60;99.90
22996;DHT22;11664;49.774;8.650;2023-05-20T05:03:33;13.60;99.90
22996;DHT22;11664;49.774;8.650;2023-05-20T05:05:58;13.70;99.90
22996;DHT22;11664;49.774;8.650;2023-05-20T05:08:27;13.80;99.90
22996;DHT22;11664;49.774;8.650;2023-05-20T05:10:53;13.90;99.90
22996;DHT22;11664;49.774;8.650;2023-05-20T05:13:19;14.00;99.90
22996;DHT22;11664;49.774;8.650;2023-05-20T05:15:47;14.00;99.90
22996;DHT22;11664;49.774;8.650;2023-05-20T05:18:12;14.10;99.90
22996;DHT22;11664;49.774;8.650;2023-05-20T05:20:42;14.20;99.90
22996;DHT22;11664;49.774;8.650;2023-05-20T05:23:14;14.20;99.90
22996;DHT22;11664;49.774;8.650;2023-05-20T05:25:49;14.30;99.90
22996;DHT22;11664;49.774;8.650;2023-05-20T05:28:15;14.30;99.90
22996;DHT22;11664;49.774;8.650;2023-05-20T05:30:40;14.30;99.90
22996;DHT22;11664;49.774;8.650;2023-05-20T05:33:06;14.40;99.90
22996;DHT22;11664;49.774;8.650;2023-05-20T05:35:38;14.40;99.90
22996;DHT22;11664;49.774;8.650;2023-05-20T05:38:03;14.50;99.90
22996;DHT22;11664;49.774;8.650;2023-05-20T05:40:29;14.60;99.90
22996;DHT22;11664;49.774;8.650;2023-05-20T05:42:54;14.60;99.90
22996;DHT22;11664;49.774;8.650;2023-05-20T05:45:19;14.60;99.90
22996;DHT22;11664;49.774;8.650;2023-05-20T05:47:51;14.70;99.90
22996;DHT22;11664;49.774;8.650;2023-05-20T05:50:19;14.70;99.90
22996;DHT22;11664;49.774;8.650;2023-05-20T05:52:51;14.70;99.90
22996;DHT22;11664;49.774;8.650;2023-05-20T05:55:16;14.80;99.90
22996;DHT22;11664;49.774;8.650;2023-05-20T05:57:48;14.80;99.90
22996;DHT22;11664;49.774;8.650;2023-05-20T06:00:14;14.80;99.90
22996;DHT22;11664;49.774;8.650;2023-05-20T06:02:43;14.80;99.90
22996;DHT22;11664;49.774;8.650;2023-05-20T06:05:13;14.90;99.90
22996;DHT22;11664;49.774;8.650;2023-05-20T06:07:45;14.90;99.90
22996;DHT22;11664;49.774;8.650;2023-05-20T06:10:18;15.00;99.90
22996;DHT22;11664;49.774;8.650;2023-05-20T06:12:49;14.90;99.90
22996;DHT22;11664;49.774;8.650;2023-05-20T06:15:15;14.90;99.90
22996;DHT22;11664;49.774;8.650;2023-05-20T06:17:46;14.90;99.90
22996;DHT22;11664;49.774;8.650;2023-05-20T06:20:18;14.90;99.90
22996;DHT22;11664;49.774;8.650;2023-05-20T06:22:46;14.90;99.90
22996;DHT22;11664;49.774;8.650;2023-05-20T06:25:13;14.90;99.90
22996;DHT22;11664;49.774;8.650;2023-05-20T06:27:44;14.90;99.90
22996;DHT22;11664;49.774;8.650;2023-05-20T06:30:10;14.90;99.90
22996;DHT22;11664;49.774;8.650;2023-05-20T06:32:39;14.90;99.90
22996;DHT22;11664;49.774;8.650;2023-05-20T06:35:08;14.90;99.90
22996;DHT22;11664;49.774;8.650;2023-05-20T06:37:40;15.00;99.90
22996;DHT22;11664;49.774;8.650;2023-05-20T06:40:06;15.10;99.90
22996;DHT22;11664;49.774;8.650;2023-05-20T06:42:47;15.10;99.90
22996;DHT22;11664;49.774;8.650;2023-05-20T06:45:19;15.10;99.90
22996;DHT22;11664;49.774;8.650;2023-05-20T06:47:50;15.20;99.90
22996;DHT22;11664;49.774;8.650;2023-05-20T06:50:18;15.20;99.90
22996;DHT22;11664;49.774;8.650;2023-05-20T06:52:50;15.30;99.90
22996;DHT22;11664;49.774;8.650;2023-05-20T06:55:18;15.30;99.90
22996;DHT22;11664;49.774;8.650;2023-05-20T06:57:50;15.40;99.90
22996;DHT22;11664;49.774;8.650;2023-05-20T07:00:19;15.40;99.90
22996;DHT22;11664;49.774;8.650;2023-05-20T07:02:47;15.50;99.90
22996;DHT22;11664;49.774;8.650;2023-05-20T07:05:19;15.50;99.90
22996;DHT22;11664;49.774;8.650;2023-05-20T07:07:47;15.50;99.90
22996;DHT22;11664;49.774;8.650;2023-05-20T07:10:13;15.50;99.90
22996;DHT22;11664;49.774;8.650;2023-05-20T07:12:44;15.60;99.90
22996;DHT22;11664;49.774;8.650;2023-05-20T07:15:19;15.60;99.90
22996;DHT22;11664;49.774;8.650;2023-05-20T07:17:51;15.70;99.90
22996;DHT22;11664;49.774;8.650;2023-05-20T07:20:19;15.70;99.90
22996;DHT22;11664;49.774;8.650;2023-05-20T07:22:45;15.70;99.90
22996;DHT22;11664;49.774;8.650;2023-05-20T07:25:18;15.80;99.90
22996;DHT22;11664;49.774;8.650;2023-05-20T07:27:50;15.90;99.90
22996;DHT22;11664;49.774;8.650;2023-05-20T07:30:16;16.10;99.90
22996;DHT22;11664;49.774;8.650;2023-05-20T07:32:48;16.20;99.90
22996;DHT22;11664;49.774;8.650;2023-05-20T07:35:13;16.30;99.90
22996;DHT22;11664;49.774;8.650;2023-05-20T07:37:39;16.30;99.90
22996;DHT22;11664;49.774;8.650;2023-05-20T07:40:08;16.40;99.90
22996;DHT22;11664;49.774;8.650;2023-05-20T07:42:37;16.50;99.90
22996;DHT22;11664;49.774;8.650;2023-05-20T07:45:06;16.50;99.90
22996;DHT22;11664;49.774;8.650;2023-05-20T07:47:36;16.70;99.90
22996;DHT22;11664;49.774;8.650;2023-05-20T07:50:05;16.80;99.90
22996;DHT22;11664;49.774;8.650;2023-05-20T07:52:31;16.90;99.90
22996;DHT22;11664;49.774;8.650;2023-05-20T07:54:59;17.00;99.90
22996;DHT22;11664;49.774;8.650;2023-05-20T07:57:25;17.10;99.90
22996;DHT22;11664;49.774;8.650;2023-05-20T07:59:50;17.30;99.90
22996;DHT22;11664;49.774;8.650;2023-05-20T08:02:22;17.50;99.90
22996;DHT22;11664;49.774;8.650;2023-05-20T08:04:47;17.60;99.90
22996;DHT22;11664;49.774;8.650;2023-05-20T08:07:19;17.70;99.90
22996;DHT22;11664;49.774;8.650;2023-05-20T08:09:50;17.90;99.90
22996;DHT22;11664;49.774;8.650;2023-05-20T08:12:16;18.00;99.90
22996;DHT22;11664;49.774;8.650;2023-05-20T08:14:52;18.00;99.90
22996;DHT22;11664;49.774;8.650;2023-05-20T08:17:18;18.20;99.90
22996;DHT22;11664;49.774;8.650;2023-05-20T08:19:44;18.50;99.90
22996;DHT22;11664;49.774;8.650;2023-05-20T08:22:11;18.60;99.90
22996;DHT22;11664;49.774;8.650;2023-05-20T08:24:43;18.80;99.90
22996;DHT22;11664;49.774;8.650;2023-05-20T08:27:11;18.90;99.90
22996;DHT22;11664;49.774;8.650;2023-05-20T08:29:37;18.90;99.90
22996;DHT22;11664;49.774;8.650;2023-05-20T08:32:03;19.00;99.90
22996;DHT22;11664;49.774;8.650;2023-05-20T08:34:47;19.10;99.90
22996;DHT22;11664;49.774;8.650;2023-05-20T08:37:19;18.90;99.90
22996;DHT22;11664;49.774;8.650;2023-05-20T08:39:51;18.80;99.90
22996;DHT22;11664;49.774;8.650;2023-05-20T08:42:29;18.80;99.90
22996;DHT22;11664;49.774;8.650;2023-05-20T08:45:09;18.80;99.90
22996;DHT22;11664;49.774;8.650;2023-05-20T08:47:37;18.90;99.90
22996;DHT22;11664;49.774;8.650;2023-05-20T08:50:03;19.00;99.90
22996;DHT22;11664;49.774;8.650;2023-05-20T08:52:30;19.30;99.90
22996;DHT22;11664;49.774;8.650;2023-05-20T08:55:06;19.30;99.90
22996;DHT22;11664;49.774;8.650;2023-05-20T08:57:34;19.30;99.90
22996;DHT22;11664;49.774;8.650;2023-05-20T09:00:01;19.30;99.90
22996;DHT22;11664;49.774;8.650;2023-05-20T09:02:36;19.40;99.90
22996;DHT22;11664;49.774;8.650;2023-05-20T09:05:03;19.40;99.90
22996;DHT22;11664;49.774;8.650;2023-05-20T09:07:32;19.40;99.90
22996;DHT22;11664;49.774;8.650;2023-05-20T09:09:57;19.50;99.90
22996;DHT22;11664;49.774;8.650;2023-05-20T09:12:23;19.60;99.90
22996;DHT22;11664;49.774;8.650;2023-05-20T09:14:51;19.60;99.90
22996;DHT22;11664;49.774;8.650;2023-05-20T09:17:17;19.50;99.90
22996;DHT22;11664;49.774;8.650;2023-05-20T09:19:48;19.70;99.90
22996;DHT22;11664;49.774;8.650;2023-05-20T09:22:13;19.80;99.90
22996;DHT22;11664;49.774;8.650;2023-05-20T09:24:39;19.90;99.90
22996;DHT22;11664;49.774;8.650;2023-05-20T09:27:05;19.90;99.90
22996;DHT22;11664;49.774;8.650;2023-05-20T09:29:32;20.00;99.90
22996;DHT22;11664;49.774;8.650;2023-05-20T09:32:01;20.00;99.90
22996;DHT22;11664;49.774;8.650;2023-05-20T09:34:30;20.00;99.90
22996;DHT22;11664;49.774;8.650;2023-05-20T09:36:58;20.10;99.90
22996;DHT22;11664;49.774;8.650;2023-05-20T09:39:24;20.20;99.90
22996;DHT22;11664;49.774;8.650;2023-05-20T09:44:22;20.30;99.90
22996;DHT22;11664;49.774;8.650;2023-05-20T09:46:48;20.50;99.90
22996;DHT22;11664;49.774;8.650;2023-05-20T09:49:14;20.80;99.90
22996;DHT22;11664;49.774;8.650;2023-05-20T09:51:41;20.80;99.90
22996;DHT22;11664;49.774;8.650;2023-05-20T09:54:11;20.90;99.90
22996;DHT22;11664;49.774;8.650;2023-05-20T09:56:37;21.00;99.90
22996;DHT22;11664;49.774;8.650;2023-05-20T09:59:04;21.20;99.90
22996;DHT22;11664;49.774;8.650;2023-05-20T10:01:30;21.10;99.90
22996;DHT22;11664;49.774;8.650;2023-05-20T10:03:56;20.90;99.90
22996;DHT22;11664;49.774;8.650;2023-05-20T10:12:28;21.00;99.90
22996;DHT22;11664;49.774;8.650;2023-05-20T10:15:22;21.20;99.90
22996;DHT22;11664;49.774;8.650;2023-05-20T10:20:23;21.40;99.90
22996;DHT22;11664;49.774;8.650;2023-05-20T10:22:55;21.40;99.90
22996;DHT22;11664;49.774;8.650;2023-05-20T10:25:28;21.60;99.90
22996;DHT22;11664;49.774;8.650;2023-05-20T10:28:06;21.60;99.90
22996;DHT22;11664;49.774;8.650;2023-05-20T10:30:32;21.70;99.90
22996;DHT22;11664;49.774;8.650;2023-05-20T10:33:03;22.00;99.90
22996;DHT22;11664;49.774;8.650;2023-05-20T10:35:30;22.30;99.90
22996;DHT22;11664;49.774;8.650;2023-05-20T10:38:07;22.50;99.90
22996;DHT22;11664;49.774;8.650;2023-05-20T10:40:34;22.50;99.90
22996;DHT22;11664;49.774;8.650;2023-05-20T10:43:13;22.80;99.90
22996;DHT22;11664;49.774;8.650;2023-05-20T10:45:54;22.60;99.90
22996;DHT22;11664;49.774;8.650;2023-05-20T10:48:31;22.90;99.90
22996;DHT22;11664;49.774;8.650;2023-05-20T10:50:59;23.30;99.90
22996;DHT22;11664;49.774;8.650;2023-05-20T10:53:29;23.40;99.90
22996;DHT22;11664;49.774;8.650;2023-05-20T10:56:02;23.40;99.90
22996;DHT22;11664;49.774;8.650;2023-05-20T10:58:36;23.30;99.90
22996;DHT22;11664;49.774;8.650;2023-05-20T11:01:09;23.20;99.90
22996;DHT22;11664;49.774;8.650;2023-05-20T11:03:39;23.40;99.90
22996;DHT22;11664;49.774;8.650;2023-05-20T11:06:15;23.40;99.90
22996;DHT22;11664;49.774;8.650;2023-05-20T11:08:41;23.40;99.90
22996;DHT22;11664;49.774;8.650;2023-05-20T11:11:10;23.30;99.90
22996;DHT22;11664;49.774;8.650;2023-05-20T11:13:42;23.40;99.90
22996;DHT22;11664;49.774;8.650;2023-05-20T11:16:08;24.00;99.90
22996;DHT22;11664;49.774;8.650;2023-05-20T11:18:33;24.20;99.90
22996;DHT22;11664;49.774;8.650;2023-05-20T11:20:59;24.40;99.90
22996;DHT22;11664;49.774;8.650;2023-05-20T11:23:28;24.60;99.90
22996;DHT22;11664;49.774;8.650;2023-05-20T11:25:55;24.50;99.90
22996;DHT22;11664;49.774;8.650;2023-05-20T11:28:24;24.60;99.90
22996;DHT22;11664;49.774;8.650;2023-05-20T11:30:51;24.10;99.90
22996;DHT22;11664;49.774;8.650;2023-05-20T11:33:17;23.90;99.60
22996;DHT22;11664;49.774;8.650;2023-05-20T11:35:52;23.40;99.90
22996;DHT22;11664;49.774;8.650;2023-05-20T11:38:21;23.50;99.90
22996;DHT22;11664;49.774;8.650;2023-05-20T11:40:54;23.30;99.90
22996;DHT22;11664;49.774;8.650;2023-05-20T11:43:26;23.60;99.90
22996;DHT22;11664;49.774;8.650;2023-05-20T11:45:55;24.00;99.50
22996;DHT22;11664;49.774;8.650;2023-05-20T11:48:26;24.10;99.90
22996;DHT22;11664;49.774;8.650;2023-05-20T11:50:53;24.30;99.90
22996;DHT22;11664;49.774;8.650;2023-05-20T11:53:20;24.30;99.40
22996;DHT22;11664;49.774;8.650;2023-05-20T11:56:04;24.20;99.90
22996;DHT22;11664;49.774;8.650;2023-05-20T11:58:30;23.60;99.70
22996;DHT22;11664;49.774;8.650;2023-05-20T12:00:57;23.40;99.90
22996;DHT22;11664;49.774;8.650;2023-05-20T12:03:23;23.60;99.90
22996;DHT22;11664;49.774;8.650;2023-05-20T12:05:48;23.80;99.90
22996;DHT22;11664;49.774;8.650;2023-05-20T12:08:18;24.30;99.90
22996;DHT22;11664;49.774;8.650;2023-05-20T12:10:43;24.70;99.90
22996;DHT22;11664;49.774;8.650;2023-05-20T12:13:09;24.80;99.90
22996;DHT22;11664;49.774;8.650;2023-05-20T12:15:37;24.70;98.40
22996;DHT22;11664;49.774;8.650;2023-05-20T12:18:03;24.70;99.90
22996;DHT22;11664;49.774;8.650;2023-05-20T12:20:30;24.80;99.90
22996;DHT22;11664;49.774;8.650;2023-05-20T12:23:04;25.30;99.90
22996;DHT22;11664;49.774;8.650;2023-05-20T12:25:29;25.60;98.20
22996;DHT22;11664;49.774;8.650;2023-05-20T12:28:00;25.60;97.70
22996;DHT22;11664;49.774;8.650;2023-05-20T12:30:26;25.40;97.80
22996;DHT22;11664;49.774;8.650;2023-05-20T12:32:57;25.30;97.70
22996;DHT22;11664;49.774;8.650;2023-05-20T12:35:40;25.20;97.10
22996;DHT22;11664;49.774;8.650;2023-05-20T12:38:06;25.30;97.60
22996;DHT22;11664;49.774;8.650;2023-05-20T12:40:32;25.40;98.00
22996;DHT22;11664;49.774;8.650;2023-05-20T12:42:59;25.40;97.10
22996;DHT22;11664;49.774;8.650;2023-05-20T12:45:28;25.60;98.40
22996;DHT22;11664;49.774;8.650;2023-05-20T12:47:54;25.90;98.10
22996;DHT22;11664;49.774;8.650;2023-05-20T12:50:21;26.20;97.00
22996;DHT22;11664;49.774;8.650;2023-05-20T12:52:50;26.20;96.50
22996;DHT22;11664;49.774;8.650;2023-05-20T12:55:19;26.50;96.30
22996;DHT22;11664;49.774;8.650;2023-05-20T12:57:45;26.20;96.30
22996;DHT22;11664;49.774;8.650;2023-05-20T13:00:14;25.60;95.60
22996;DHT22;11664;49.774;8.650;2023-05-20T13:02:40;25.00;96.20
22996;DHT22;11664;49.774;8.650;2023-05-20T13:05:19;24.60;97.30
22996;DHT22;11664;49.774;8.650;2023-05-20T13:07:44;24.10;97.50
22996;DHT22;11664;49.774;8.650;2023-05-20T13:10:10;23.60;98.70
22996;DHT22;11664;49.774;8.650;2023-05-20T13:12:37;23.40;99.40
22996;DHT22;11664;49.774;8.650;2023-05-20T13:15:03;23.30;99.30
22996;DHT22;11664;49.774;8.650;2023-05-20T13:17:29;22.90;99.10
22996;DHT22;11664;49.774;8.650;2023-05-20T13:19:55;22.90;99.90
22996;DHT22;11664;49.774;8.650;2023-05-20T13:22:21;22.90;99.90
22996;DHT22;11664;49.774;8.650;2023-05-20T13:24:49;23.00;99.90
22996;DHT22;11664;49.774;8.650;2023-05-20T13:27:15;23.30;99.90
22996;DHT22;11664;49.774;8.650;2023-05-20T13:29:46;23.70;99.00
22996;DHT22;11664;49.774;8.650;2023-05-20T13:32:12;24.00;99.20
22996;DHT22;11664;49.774;8.650;2023-05-20T13:34:40;24.30;98.50
22996;DHT22;11664;49.774;8.650;2023-05-20T13:37:06;24.40;98.30
22996;DHT22;11664;49.774;8.650;2023-05-20T13:39:32;24.20;97.80
22996;DHT22;11664;49.774;8.650;2023-05-20T13:42:03;24.30;98.60
22996;DHT22;11664;49.774;8.650;2023-05-20T13:44:32;23.90;98.90
22996;DHT22;11664;49.774;8.650;2023-05-20T13:46:58;23.70;99.90
22996;DHT22;11664;49.774;8.650;2023-05-20T13:49:32;24.30;99.90
22996;DHT22;11664;49.774;8.650;2023-05-20T13:52:01;24.70;98.70
22996;DHT22;11664;49.774;8.650;2023-05-20T13:54:26;24.90;98.40
22996;DHT22;11664;49.774;8.650;2023-05-20T13:56:52;24.80;98.40
22996;DHT22;11664;49.774;8.650;2023-05-20T13:59:17;24.50;98.50
22996;DHT22;11664;49.774;8.650;2023-05-20T14:01:46;23.90;99.00
22996;DHT22;11664;49.774;8.650;2023-05-20T14:04:12;23.40;99.90
22996;DHT22;11664;49.774;8.650;2023-05-20T14:06:41;23.40;99.90
22996;DHT22;11664;49.774;8.650;2023-05-20T14:09:08;23.30;99.90
22996;DHT22;11664;49.774;8.650;2023-05-20T14:11:49;23.80;99.90
22996;DHT22;11664;49.774;8.650;2023-05-20T14:14:15;24.70;99.90
22996;DHT22;11664;49.774;8.650;2023-05-20T14:16:41;24.90;98.30
22996;DHT22;11664;49.774;8.650;2023-05-20T14:19:06;25.00;99.00
22996;DHT22;11664;49.774;8.650;2023-05-20T14:21:32;24.90;98.00
22996;DHT22;11664;49.774;8.650;2023-05-20T14:23:59;24.90;99.00
22996;DHT22;11664;49.774;8.650;2023-05-20T14:26:25;24.90;97.40
22996;DHT22;11664;49.774;8.650;2023-05-20T14:28:51;24.90;98.60
22996;DHT22;11664;49.774;8.650;2023-05-20T14:31:16;25.00;98.60
22996;DHT22;11664;49.774;8.650;2023-05-20T14:33:42;25.10;98.10
22996;DHT22;11664;49.774;8.650;2023-05-20T14:36:07;25.50;98.10
22996;DHT22;11664;49.774;8.650;2023-05-20T14:38:33;25.60;98.00
22996;DHT22;11664;49.774;8.650;2023-05-20T14:41:04;25.70;98.00
22996;DHT22;11664;49.774;8.650;2023-05-20T14:43:30;25.80;97.20
22996;DHT22;11664;49.774;8.650;2023-05-20T14:45:56;25.80;96.80
22996;DHT22;11664;49.774;8.650;2023-05-20T14:48:22;25.60;96.80
22996;DHT22;11664;49.774;8.650;2023-05-20T14:50:47;25.40;97.30
22996;DHT22;11664;49.774;8.650;2023-05-20T14:53:13;25.50;97.60
22996;DHT22;11664;49.774;8.650;2023-05-20T14:55:42;25.50;96.30
22996;DHT22;11664;49.774;8.650;2023-05-20T14:58:07;25.60;98.60
22996;DHT22;11664;49.774;8.650;2023-05-20T15:00:36;26.10;98.00
22996;DHT22;11664;49.774;8.650;2023-05-20T15:03:01;26.30;96.30
22996;DHT22;11664;49.774;8.650;2023-05-20T15:05:27;26.40;96.50
22996;DHT22;11664;49.774;8.650;2023-05-20T15:07:52;26.30;96.00
22996;DHT22;11664;49.774;8.650;2023-05-20T15:10:18;25.90;96.00
22996;DHT22;11664;49.774;8.650;2023-05-20T15:12:44;25.80;96.50
22996;DHT22;11664;49.774;8.650;2023-05-20T15:15:09;26.10;96.20
22996;DHT22;11664;49.774;8.650;2023-05-20T15:17:35;26.10;95.90
22996;DHT22;11664;49.774;8.650;2023-05-20T15:20:01;26.30;97.40
22996;DHT22;11664;49.774;8.650;2023-05-20T15:22:27;26.30;96.10
22996;DHT22;11664;49.774;8.650;2023-05-20T15:24:56;26.10;96.20
22996;DHT22;11664;49.774;8.650;2023-05-20T15:27:21;26.20;96.70
22996;DHT22;11664;49.774;8.650;2023-05-20T15:29:47;25.90;96.10
22996;DHT22;11664;49.774;8.650;2023-05-20T15:32:13;25.60;96.20
22996;DHT22;11664;49.774;8.650;2023-05-20T15:34:45;25.70;97.10
22996;DHT22;11664;49.774;8.650;2023-05-20T15:37:10;25.60;97.00
22996;DHT22;11664;49.774;8.650;2023-05-20T15:39:36;25.30;96.50
22996;DHT22;11664;49.774;8.650;2023-05-20T15:42:09;25.20;98.10
22996;DHT22;11664;49.774;8.650;2023-05-20T15:44:38;25.10;98.00
22996;DHT22;11664;49.774;8.650;2023-05-20T15:47:10;25.10;97.40
22996;DHT22;11664;49.774;8.650;2023-05-20T15:49:35;24.70;97.60